sensor_id;sensor_type;location;lat;lon;timestamp;pressure;altitude;pressure_sealevel;temperature;humidity
79465;BME280;68932;47.410;8.232;2023-09-19T00:02:06;96742.39;;;17.14;79.18
79465;BME280;68932;47.410;8.232;2023-09-19T00:04:34;96746.80;;;17.12;79.09
79465;BME280;68932;47.410;8.232;2023-09-19T00:07:03;96747.59;;;17.11;79.21
79465;BME280;68932;47.410;8.232;2023-09-19T00:09:31;96749.20;;;17.11;79.30
79465;BME280;68932;47.410;8.232;2023-09-19T00:11:59;96753.83;;;17.11;79.23
79465;BME280;68932;47.410;8.232;2023-09-19T00:14:28;96753.77;;;17.12;79.22
79465;BME280;68932;47.410;8.232;2023-09-19T00:16:56;96747.58;;;17.12;79.28
79465;BME280;68932;47.410;8.232;2023-09-19T00:19:24;96748.06;;;17.12;79.19
79465;BME280;68932;47.410;8.232;2023-09-19T00:21:52;96751.11;;;17.12;79.28
79465;BME280;68932;47.410;8.232;2023-09-19T00:24:21;96752.30;;;17.10;79.08
79465;BME280;68932;47.410;8.232;2023-09-19T00:26:49;96759.59;;;17.10;78.87
79465;BME280;68932;47.410;8.232;2023-09-19T00:29:17;96755.76;;;17.11;78.88
79465;BME280;68932;47.410;8.232;2023-09-19T00:31:46;96753.30;;;17.11;79.15
79465;BME280;68932;47.410;8.232;2023-09-19T00:34:14;96758.36;;;17.10;79.26
79465;BME280;68932;47.410;8.232;2023-09-19T00:36:42;96758.08;;;17.09;79.37
79465;BME280;68932;47.410;8.232;2023-09-19T00:39:11;96757.81;;;17.09;79.33
79465;BME280;68932;47.410;8.232;2023-09-19T00:41:39;96759.73;;;17.09;79.45
79465;BME280;68932;47.410;8.232;2023-09-19T00:44:08;96756.89;;;17.09;79.54
79465;BME280;68932;47.410;8.232;2023-09-19T00:46:36;96756.44;;;17.08;79.48
79465;BME280;68932;47.410;8.232;2023-09-19T00:49:04;96758.48;;;17.07;79.54
79465;BME280;68932;47.410;8.232;2023-09-19T00:51:36;96755.27;;;17.07;79.71
79465;BME280;68932;47.410;8.232;2023-09-19T00:54:05;96759.48;;;17.08;79.59
79465;BME280;68932;47.410;8.232;2023-09-19T00:56:33;96758.23;;;17.08;79.67
79465;BME280;68932;47.410;8.232;2023-09-19T00:59:02;96763.48;;;17.08;79.78
79465;BME280;68932;47.410;8.232;2023-09-19T01:01:30;96762.73;;;17.09;79.47
79465;BME280;68932;47.410;8.232;2023-09-19T01:03:59;96762.98;;;17.08;79.45
79465;BME280;68932;47.410;8.232;2023-09-19T01:06:27;96766.98;;;17.07;79.48
79465;BME280;68932;47.410;8.232;2023-09-19T01:08:56;96770.11;;;17.06;79.51
79465;BME280;68932;47.410;8.232;2023-09-19T01:11:31;96770.77;;;17.05;79.59
79465;BME280;68932;47.410;8.232;2023-09-19T01:14:06;96773.42;;;17.03;79.55
79465;BME280;68932;47.410;8.232;2023-09-19T01:16:44;96773.13;;;17.00;79.65
79465;BME280;68932;47.410;8.232;2023-09-19T01:19:36;96770.48;;;16.98;79.56
79465;BME280;68932;47.410;8.232;2023-09-19T01:22:19;96769.13;;;16.96;79.69
79465;BME280;68932;47.410;8.232;2023-09-19T01:25:13;96771.06;;;16.94;79.55
79465;BME280;68932;47.410;8.232;2023-09-19T01:28:05;96768.92;;;16.90;79.66
79465;BME280;68932;47.410;8.232;2023-09-19T01:30:40;96772.27;;;16.89;79.68
79465;BME280;68932;47.410;8.232;2023-09-19T01:33:10;96772.96;;;16.87;79.78
79465;BME280;68932;47.410;8.232;2023-09-19T01:35:40;96770.22;;;16.86;79.76
79465;BME280;68932;47.410;8.232;2023-09-19T01:38:08;96770.42;;;16.86;79.93
79465;BME280;68932;47.410;8.232;2023-09-19T01:40:40;96768.92;;;16.85;79.99
79465;BME280;68932;47.410;8.232;2023-09-19T01:43:12;96772.50;;;16.84;80.06
79465;BME280;68932;47.410;8.232;2023-09-19T01:45:50;96774.48;;;16.84;80.05
79465;BME280;68932;47.410;8.232;2023-09-19T01:48:25;96771.73;;;16.85;80.04
79465;BME280;68932;47.410;8.232;2023-09-19T01:51:02;96775.46;;;16.85;80.10
79465;BME280;68932;47.410;8.232;2023-09-19T01:53:35;96778.51;;;16.85;79.99
79465;BME280;68932;47.410;8.232;2023-09-19T01:56:07;96782.81;;;16.84;79.97
79465;BME280;68932;47.410;8.232;2023-09-19T01:58:41;96786.92;;;16.84;79.96
79465;BME280;68932;47.410;8.232;2023-09-19T02:01:14;96781.98;;;16.84;79.80
79465;BME280;68932;47.410;8.232;2023-09-19T02:03:45;96783.69;;;16.82;79.83
79465;BME280;68932;47.410;8.232;2023-09-19T02:06:16;96785.17;;;16.82;79.80
79465;BME280;68932;47.410;8.232;2023-09-19T02:08:45;96791.42;;;16.83;79.82
79465;BME280;68932;47.410;8.232;2023-09-19T02:11:14;96792.30;;;16.83;79.85
79465;BME280;68932;47.410;8.232;2023-09-19T02:13:42;96792.09;;;16.83;79.83
79465;BME280;68932;47.410;8.232;2023-09-19T02:16:11;96794.45;;;16.85;79.76
79465;BME280;68932;47.410;8.232;2023-09-19T02:18:39;96790.61;;;16.86;79.61
79465;BME280;68932;47.410;8.232;2023-09-19T02:21:07;96787.66;;;16.87;79.56
79465;BME280;68932;47.410;8.232;2023-09-19T02:23:36;96782.86;;;16.87;79.62
79465;BME280;68932;47.410;8.232;2023-09-19T02:26:04;96788.50;;;16.87;79.48
79465;BME280;68932;47.410;8.232;2023-09-19T02:28:32;96782.95;;;16.86;79.44
79465;BME280;68932;47.410;8.232;2023-09-19T02:31:01;96783.36;;;16.86;79.23
79465;BME280;68932;47.410;8.232;2023-09-19T02:33:29;96787.29;;;16.85;78.96
79465;BME280;68932;47.410;8.232;2023-09-19T02:35:58;96783.81;;;16.85;78.78
79465;BME280;68932;47.410;8.232;2023-09-19T02:38:26;96789.41;;;16.84;78.58
79465;BME280;68932;47.410;8.232;2023-09-19T02:40:55;96789.21;;;16.84;78.47
79465;BME280;68932;47.410;8.232;2023-09-19T02:43:24;96788.60;;;16.85;78.41
79465;BME280;68932;47.410;8.232;2023-09-19T02:45:52;96787.92;;;16.84;78.14
79465;BME280;68932;47.410;8.232;2023-09-19T02:48:20;96796.06;;;16.84;77.88
79465;BME280;68932;47.410;8.232;2023-09-19T02:50:51;96788.85;;;16.84;77.69
79465;BME280;68932;47.410;8.232;2023-09-19T02:53:19;96788.48;;;16.84;77.61
79465;BME280;68932;47.410;8.232;2023-09-19T02:55:47;96787.23;;;16.84;77.41
79465;BME280;68932;47.410;8.232;2023-09-19T02:58:16;96792.55;;;16.84;77.37
79465;BME280;68932;47.410;8.232;2023-09-19T03:00:44;96790.98;;;16.84;77.22
79465;BME280;68932;47.410;8.232;2023-09-19T03:03:12;96791.84;;;16.84;77.20
79465;BME280;68932;47.410;8.232;2023-09-19T03:05:41;96792.16;;;16.85;77.10
79465;BME280;68932;47.410;8.232;2023-09-19T03:08:09;96789.10;;;16.85;76.96
79465;BME280;68932;47.410;8.232;2023-09-19T03:10:38;96790.10;;;16.85;77.03
79465;BME280;68932;47.410;8.232;2023-09-19T03:13:06;96790.80;;;16.85;77.12
79465;BME280;68932;47.410;8.232;2023-09-19T03:15:34;96794.88;;;16.86;76.95
79465;BME280;68932;47.410;8.232;2023-09-19T03:18:03;96797.88;;;16.86;77.01
79465;BME280;68932;47.410;8.232;2023-09-19T03:20:31;96797.84;;;16.86;77.02
79465;BME280;68932;47.410;8.232;2023-09-19T03:22:59;96799.86;;;16.85;77.02
79465;BME280;68932;47.410;8.232;2023-09-19T03:25:28;96797.34;;;16.84;77.01
79465;BME280;68932;47.410;8.232;2023-09-19T03:27:57;96793.02;;;16.83;77.23
79465;BME280;68932;47.410;8.232;2023-09-19T03:30:25;96793.77;;;16.82;77.16
79465;BME280;68932;47.410;8.232;2023-09-19T03:32:54;96792.63;;;16.83;77.29
79465;BME280;68932;47.410;8.232;2023-09-19T03:35:22;96797.11;;;16.85;77.33
79465;BME280;68932;47.410;8.232;2023-09-19T03:37:50;96797.55;;;16.84;77.25
79465;BME280;68932;47.410;8.232;2023-09-19T03:40:19;96795.56;;;16.82;77.23
79465;BME280;68932;47.410;8.232;2023-09-19T03:42:47;96794.02;;;16.82;77.26
79465;BME280;68932;47.410;8.232;2023-09-19T03:45:15;96790.11;;;16.82;77.18
79465;BME280;68932;47.410;8.232;2023-09-19T03:47:44;96792.42;;;16.82;77.29
79465;BME280;68932;47.410;8.232;2023-09-19T03:50:12;96793.73;;;16.80;77.22
79465;BME280;68932;47.410;8.232;2023-09-19T03:52:40;96800.12;;;16.80;77.21
79465;BME280;68932;47.410;8.232;2023-09-19T03:55:09;96798.11;;;16.79;77.17
79465;BME280;68932;47.410;8.232;2023-09-19T03:57:38;96795.17;;;16.78;77.25
79465;BME280;68932;47.410;8.232;2023-09-19T04:00:08;96796.97;;;16.76;77.26
79465;BME280;68932;47.410;8.232;2023-09-19T04:02:37;96794.16;;;16.74;77.33
79465;BME280;68932;47.410;8.232;2023-09-19T04:05:06;96789.66;;;16.72;77.27
79465;BME280;68932;47.410;8.232;2023-09-19T04:07:34;96786.73;;;16.72;77.08
79465;BME280;68932;47.410;8.232;2023-09-19T04:10:03;96783.88;;;16.70;77.13
79465;BME280;68932;47.410;8.232;2023-09-19T04:12:32;96787.66;;;16.67;77.13
79465;BME280;68932;47.410;8.232;2023-09-19T04:15:00;96794.95;;;16.65;77.17
79465;BME280;68932;47.410;8.232;2023-09-19T04:17:29;96799.77;;;16.63;77.22
79465;BME280;68932;47.410;8.232;2023-09-19T04:19:57;96798.63;;;16.62;77.26
79465;BME280;68932;47.410;8.232;2023-09-19T04:22:25;96794.47;;;16.61;77.31
79465;BME280;68932;47.410;8.232;2023-09-19T04:24:53;96793.58;;;16.61;77.37
79465;BME280;68932;47.410;8.232;2023-09-19T04:27:21;96802.17;;;16.62;77.29
79465;BME280;68932;47.410;8.232;2023-09-19T04:29:49;96802.96;;;16.63;77.46
79465;BME280;68932;47.410;8.232;2023-09-19T04:32:18;96809.08;;;16.64;77.43
79465;BME280;68932;47.410;8.232;2023-09-19T04:34:46;96810.66;;;16.64;77.30
79465;BME280;68932;47.410;8.232;2023-09-19T04:37:14;96812.77;;;16.64;77.45
79465;BME280;68932;47.410;8.232;2023-09-19T04:39:43;96818.09;;;16.64;77.40
79465;BME280;68932;47.410;8.232;2023-09-19T04:42:11;96821.00;;;16.65;77.40
79465;BME280;68932;47.410;8.232;2023-09-19T04:44:40;96827.66;;;16.64;77.51
79465;BME280;68932;47.410;8.232;2023-09-19T04:47:08;96833.30;;;16.62;77.61
79465;BME280;68932;47.410;8.232;2023-09-19T04:49:37;96833.55;;;16.61;77.68
79465;BME280;68932;47.410;8.232;2023-09-19T04:52:06;96835.12;;;16.62;77.67
79465;BME280;68932;47.410;8.232;2023-09-19T04:54:34;96842.11;;;16.63;77.69
79465;BME280;68932;47.410;8.232;2023-09-19T04:57:03;96840.22;;;16.62;77.70
79465;BME280;68932;47.410;8.232;2023-09-19T04:59:31;96839.73;;;16.61;77.80
79465;BME280;68932;47.410;8.232;2023-09-19T05:02:00;96843.66;;;16.61;77.82
79465;BME280;68932;47.410;8.232;2023-09-19T05:04:28;96847.81;;;16.60;77.80
79465;BME280;68932;47.410;8.232;2023-09-19T05:06:56;96854.52;;;16.60;77.78
79465;BME280;68932;47.410;8.232;2023-09-19T05:09:24;96861.66;;;16.60;77.99
79465;BME280;68932;47.410;8.232;2023-09-19T05:11:52;96863.59;;;16.60;78.00
79465;BME280;68932;47.410;8.232;2023-09-19T05:14:21;96862.17;;;16.60;78.10
79465;BME280;68932;47.410;8.232;2023-09-19T05:16:49;96865.61;;;16.59;78.13
79465;BME280;68932;47.410;8.232;2023-09-19T05:19:17;96868.33;;;16.58;78.21
79465;BME280;68932;47.410;8.232;2023-09-19T05:21:46;96871.45;;;16.59;78.37
79465;BME280;68932;47.410;8.232;2023-09-19T05:24:14;96868.38;;;16.60;78.48
79465;BME280;68932;47.410;8.232;2023-09-19T05:26:42;96870.57;;;16.61;78.43
79465;BME280;68932;47.410;8.232;2023-09-19T05:29:10;96877.38;;;16.62;78.50
79465;BME280;68932;47.410;8.232;2023-09-19T05:31:38;96877.06;;;16.63;78.45
79465;BME280;68932;47.410;8.232;2023-09-19T05:34:07;96881.27;;;16.66;78.51
79465;BME280;68932;47.410;8.232;2023-09-19T05:36:35;96886.58;;;16.70;78.65
79465;BME280;68932;47.410;8.232;2023-09-19T05:39:04;96889.20;;;16.72;78.62
79465;BME280;68932;47.410;8.232;2023-09-19T05:41:32;96885.11;;;16.72;78.58
79465;BME280;68932;47.410;8.232;2023-09-19T05:44:00;96890.83;;;16.73;78.62
79465;BME280;68932;47.410;8.232;2023-09-19T05:46:29;96892.41;;;16.75;78.63
79465;BME280;68932;47.410;8.232;2023-09-19T05:48:57;96895.06;;;16.75;78.71
79465;BME280;68932;47.410;8.232;2023-09-19T05:51:26;96894.36;;;16.77;78.60
79465;BME280;68932;47.410;8.232;2023-09-19T05:53:54;96895.88;;;16.81;78.74
79465;BME280;68932;47.410;8.232;2023-09-19T05:56:22;96893.23;;;16.83;78.67
79465;BME280;68932;47.410;8.232;2023-09-19T05:58:50;96891.68;;;16.86;78.53
79465;BME280;68932;47.410;8.232;2023-09-19T06:01:19;96892.96;;;16.89;78.63
79465;BME280;68932;47.410;8.232;2023-09-19T06:03:47;96894.05;;;16.93;78.33
79465;BME280;68932;47.410;8.232;2023-09-19T06:06:15;96893.83;;;16.95;78.43
79465;BME280;68932;47.410;8.232;2023-09-19T06:08:44;96891.62;;;17.00;78.30
79465;BME280;68932;47.410;8.232;2023-09-19T06:11:12;96892.28;;;17.04;78.17
79465;BME280;68932;47.410;8.232;2023-09-19T06:13:40;96895.86;;;17.09;78.11
79465;BME280;68932;47.410;8.232;2023-09-19T06:16:09;96901.77;;;17.14;78.05
79465;BME280;68932;47.410;8.232;2023-09-19T06:18:37;96905.38;;;17.18;77.85
79465;BME280;68932;47.410;8.232;2023-09-19T06:21:05;96911.73;;;17.22;77.84
79465;BME280;68932;47.410;8.232;2023-09-19T06:23:34;96911.47;;;17.24;77.83
79465;BME280;68932;47.410;8.232;2023-09-19T06:26:03;96911.88;;;17.28;77.76
79465;BME280;68932;47.410;8.232;2023-09-19T06:28:31;96910.39;;;17.30;77.63
79465;BME280;68932;47.410;8.232;2023-09-19T06:31:01;96912.50;;;17.34;77.86
79465;BME280;68932;47.410;8.232;2023-09-19T06:33:30;96916.11;;;17.37;77.65
79465;BME280;68932;47.410;8.232;2023-09-19T06:35:58;96919.40;;;17.40;77.74
79465;BME280;68932;47.410;8.232;2023-09-19T06:38:26;96917.66;;;17.41;77.50
79465;BME280;68932;47.410;8.232;2023-09-19T06:40:54;96915.47;;;17.44;77.48
79465;BME280;68932;47.410;8.232;2023-09-19T06:43:23;96919.63;;;17.45;77.45
79465;BME280;68932;47.410;8.232;2023-09-19T06:45:51;96920.64;;;17.45;77.52
79465;BME280;68932;47.410;8.232;2023-09-19T06:48:19;96922.45;;;17.45;77.24
79465;BME280;68932;47.410;8.232;2023-09-19T06:50:47;96926.42;;;17.44;77.23
79465;BME280;68932;47.410;8.232;2023-09-19T06:53:16;96929.73;;;17.45;77.22
79465;BME280;68932;47.410;8.232;2023-09-19T06:55:44;96937.36;;;17.46;77.28
79465;BME280;68932;47.410;8.232;2023-09-19T06:58:12;96931.88;;;17.46;77.21
79465;BME280;68932;47.410;8.232;2023-09-19T07:00:40;96933.56;;;17.46;77.14
79465;BME280;68932;47.410;8.232;2023-09-19T07:03:09;96937.52;;;17.49;77.08
79465;BME280;68932;47.410;8.232;2023-09-19T07:05:38;96935.52;;;17.51;77.10
79465;BME280;68932;47.410;8.232;2023-09-19T07:08:07;96936.80;;;17.56;77.16
79465;BME280;68932;47.410;8.232;2023-09-19T07:10:36;96939.42;;;17.61;77.18
79465;BME280;68932;47.410;8.232;2023-09-19T07:13:05;96934.30;;;17.66;77.06
79465;BME280;68932;47.410;8.232;2023-09-19T07:15:35;96937.74;;;17.73;76.84
79465;BME280;68932;47.410;8.232;2023-09-19T07:18:04;96941.92;;;17.77;76.76
79465;BME280;68932;47.410;8.232;2023-09-19T07:20:33;96939.70;;;17.82;76.53
79465;BME280;68932;47.410;8.232;2023-09-19T07:23:01;96938.52;;;17.87;76.63
79465;BME280;68932;47.410;8.232;2023-09-19T07:25:30;96942.95;;;17.92;76.31
79465;BME280;68932;47.410;8.232;2023-09-19T07:27:59;96941.31;;;17.97;76.39
79465;BME280;68932;47.410;8.232;2023-09-19T07:30:28;96939.90;;;18.02;76.49
79465;BME280;68932;47.410;8.232;2023-09-19T07:32:56;96940.35;;;18.07;76.22
79465;BME280;68932;47.410;8.232;2023-09-19T07:35:24;96939.69;;;18.10;76.08
79465;BME280;68932;47.410;8.232;2023-09-19T07:37:53;96941.98;;;18.15;75.90
79465;BME280;68932;47.410;8.232;2023-09-19T07:40:21;96949.34;;;18.20;75.61
79465;BME280;68932;47.410;8.232;2023-09-19T07:42:49;96955.73;;;18.22;75.35
79465;BME280;68932;47.410;8.232;2023-09-19T07:45:18;96963.38;;;18.25;75.35
79465;BME280;68932;47.410;8.232;2023-09-19T07:47:47;96965.35;;;18.29;75.04
79465;BME280;68932;47.410;8.232;2023-09-19T07:50:16;96968.89;;;18.31;75.26
79465;BME280;68932;47.410;8.232;2023-09-19T07:52:44;96972.65;;;18.30;75.01
79465;BME280;68932;47.410;8.232;2023-09-19T07:55:13;96972.48;;;18.30;75.04
79465;BME280;68932;47.410;8.232;2023-09-19T07:57:41;96972.77;;;18.29;74.82
79465;BME280;68932;47.410;8.232;2023-09-19T08:00:11;96977.81;;;18.28;74.74
79465;BME280;68932;47.410;8.232;2023-09-19T08:02:41;96976.19;;;18.29;74.40
79465;BME280;68932;47.410;8.232;2023-09-19T08:05:11;96979.41;;;18.30;74.31
79465;BME280;68932;47.410;8.232;2023-09-19T08:07:40;96979.71;;;18.34;74.41
79465;BME280;68932;47.410;8.232;2023-09-19T08:10:10;96978.41;;;18.41;74.08
79465;BME280;68932;47.410;8.232;2023-09-19T08:12:39;96978.45;;;18.40;73.82
79465;BME280;68932;47.410;8.232;2023-09-19T08:15:08;96984.27;;;18.44;73.88
79465;BME280;68932;47.410;8.232;2023-09-19T08:17:37;96985.69;;;18.48;74.09
79465;BME280;68932;47.410;8.232;2023-09-19T08:20:07;96988.21;;;18.54;74.05
79465;BME280;68932;47.410;8.232;2023-09-19T08:22:35;96988.02;;;18.64;73.97
79465;BME280;68932;47.410;8.232;2023-09-19T08:25:05;96990.65;;;18.68;73.74
79465;BME280;68932;47.410;8.232;2023-09-19T08:27:33;96995.17;;;18.70;73.49
79465;BME280;68932;47.410;8.232;2023-09-19T08:30:01;96995.38;;;18.74;73.50
79465;BME280;68932;47.410;8.232;2023-09-19T08:32:29;96988.81;;;18.78;73.06
79465;BME280;68932;47.410;8.232;2023-09-19T08:34:57;96992.70;;;18.80;72.68
79465;BME280;68932;47.410;8.232;2023-09-19T08:37:26;96993.46;;;18.79;72.35
79465;BME280;68932;47.410;8.232;2023-09-19T08:39:54;96996.61;;;18.84;72.72
79465;BME280;68932;47.410;8.232;2023-09-19T08:42:22;96994.23;;;18.88;72.37
79465;BME280;68932;47.410;8.232;2023-09-19T08:44:50;96993.59;;;18.92;72.56
79465;BME280;68932;47.410;8.232;2023-09-19T08:47:23;96997.19;;;18.99;72.22
79465;BME280;68932;47.410;8.232;2023-09-19T08:50:03;96995.92;;;19.03;72.04
79465;BME280;68932;47.410;8.232;2023-09-19T08:52:41;96994.98;;;19.05;72.16
79465;BME280;68932;47.410;8.232;2023-09-19T08:55:13;97001.61;;;19.10;72.11
79465;BME280;68932;47.410;8.232;2023-09-19T08:57:42;97001.85;;;19.14;71.97
79465;BME280;68932;47.410;8.232;2023-09-19T09:00:13;97003.80;;;19.20;71.48
79465;BME280;68932;47.410;8.232;2023-09-19T09:02:44;97005.16;;;19.23;71.16
79465;BME280;68932;47.410;8.232;2023-09-19T09:05:12;97001.30;;;19.20;70.86
79465;BME280;68932;47.410;8.232;2023-09-19T09:07:41;97002.76;;;19.18;70.93
79465;BME280;68932;47.410;8.232;2023-09-19T09:10:11;97001.65;;;19.17;70.69
79465;BME280;68932;47.410;8.232;2023-09-19T09:12:39;96999.92;;;19.18;70.88
79465;BME280;68932;47.410;8.232;2023-09-19T09:15:09;96998.62;;;19.24;70.92
79465;BME280;68932;47.410;8.232;2023-09-19T09:17:38;96997.11;;;19.30;70.52
79465;BME280;68932;47.410;8.232;2023-09-19T09:20:08;96997.70;;;19.33;70.39
79465;BME280;68932;47.410;8.232;2023-09-19T09:22:36;96997.78;;;19.43;70.21
79465;BME280;68932;47.410;8.232;2023-09-19T09:25:06;96995.39;;;19.50;69.93
79465;BME280;68932;47.410;8.232;2023-09-19T09:27:34;96997.98;;;19.53;68.68
79465;BME280;68932;47.410;8.232;2023-09-19T09:30:03;96998.27;;;19.50;68.69
79465;BME280;68932;47.410;8.232;2023-09-19T09:32:32;97003.96;;;19.55;68.76
79465;BME280;68932;47.410;8.232;2023-09-19T09:35:01;96998.43;;;19.62;68.83
79465;BME280;68932;47.410;8.232;2023-09-19T09:37:30;96996.59;;;19.72;68.37
79465;BME280;68932;47.410;8.232;2023-09-19T09:39:59;96998.20;;;19.83;68.39
79465;BME280;68932;47.410;8.232;2023-09-19T09:42:34;96997.37;;;19.94;68.10
79465;BME280;68932;47.410;8.232;2023-09-19T09:45:19;96995.13;;;20.07;67.99
79465;BME280;68932;47.410;8.232;2023-09-19T09:47:48;96992.46;;;20.14;67.51
79465;BME280;68932;47.410;8.232;2023-09-19T09:50:25;96986.78;;;20.20;68.02
79465;BME280;68932;47.410;8.232;2023-09-19T09:52:53;96984.27;;;20.29;67.93
79465;BME280;68932;47.410;8.232;2023-09-19T09:55:22;96987.16;;;20.30;67.33
79465;BME280;68932;47.410;8.232;2023-09-19T10:00:53;96986.45;;;20.30;66.29
79465;BME280;68932;47.410;8.232;2023-09-19T10:03:23;96989.30;;;20.30;67.05
79465;BME280;68932;47.410;8.232;2023-09-19T10:05:58;96986.18;;;20.29;66.38
79465;BME280;68932;47.410;8.232;2023-09-19T10:08:26;96986.64;;;20.25;66.33
79465;BME280;68932;47.410;8.232;2023-09-19T10:10:55;96984.52;;;20.22;66.04
79465;BME280;68932;47.410;8.232;2023-09-19T10:13:23;96984.36;;;20.23;66.61
79465;BME280;68932;47.410;8.232;2023-09-19T10:15:54;96990.13;;;20.31;66.17
79465;BME280;68932;47.410;8.232;2023-09-19T10:18:25;96988.11;;;20.38;65.95
79465;BME280;68932;47.410;8.232;2023-09-19T10:20:54;96988.34;;;20.50;65.96
79465;BME280;68932;47.410;8.232;2023-09-19T10:23:24;96985.17;;;20.58;65.58
79465;BME280;68932;47.410;8.232;2023-09-19T10:25:53;96982.90;;;20.63;65.37
79465;BME280;68932;47.410;8.232;2023-09-19T10:28:22;96985.91;;;20.66;65.26
79465;BME280;68932;47.410;8.232;2023-09-19T10:30:51;96982.95;;;20.72;65.25
79465;BME280;68932;47.410;8.232;2023-09-19T10:33:22;96982.20;;;20.80;64.45
79465;BME280;68932;47.410;8.232;2023-09-19T10:35:52;96978.63;;;20.83;63.58
79465;BME280;68932;47.410;8.232;2023-09-19T10:38:26;96972.10;;;20.82;63.64
79465;BME280;68932;47.410;8.232;2023-09-19T10:40:56;96970.48;;;20.86;63.44
79465;BME280;68932;47.410;8.232;2023-09-19T10:43:29;96967.10;;;20.89;63.79
79465;BME280;68932;47.410;8.232;2023-09-19T10:46:02;96967.41;;;20.92;63.59
79465;BME280;68932;47.410;8.232;2023-09-19T10:48:30;96976.70;;;20.94;63.78
79465;BME280;68932;47.410;8.232;2023-09-19T10:51:04;96981.17;;;21.00;63.80
79465;BME280;68932;47.410;8.232;2023-09-19T10:53:44;96981.34;;;21.03;63.06
79465;BME280;68932;47.410;8.232;2023-09-19T10:56:19;96979.34;;;21.12;63.39
79465;BME280;68932;47.410;8.232;2023-09-19T10:58:49;96984.35;;;21.15;62.68
79465;BME280;68932;47.410;8.232;2023-09-19T11:01:18;96984.25;;;21.11;62.86
79465;BME280;68932;47.410;8.232;2023-09-19T11:03:46;96978.74;;;21.08;62.53
79465;BME280;68932;47.410;8.232;2023-09-19T11:06:16;96973.39;;;21.06;62.49
79465;BME280;68932;47.410;8.232;2023-09-19T11:09:04;96973.59;;;21.12;62.58
79465;BME280;68932;47.410;8.232;2023-09-19T11:11:46;96968.07;;;21.24;63.46
79465;BME280;68932;47.410;8.232;2023-09-19T11:14:39;96964.84;;;21.29;62.09
79465;BME280;68932;47.410;8.232;2023-09-19T11:17:32;96961.95;;;21.28;61.99
79465;BME280;68932;47.410;8.232;2023-09-19T11:23:22;96960.65;;;21.19;62.00
79465;BME280;68932;47.410;8.232;2023-09-19T11:25:51;96953.30;;;21.24;62.31
79465;BME280;68932;47.410;8.232;2023-09-19T11:28:34;96957.73;;;21.35;62.23
79465;BME280;68932;47.410;8.232;2023-09-19T11:34:46;96954.93;;;21.68;61.79
79465;BME280;68932;47.410;8.232;2023-09-19T11:40:08;96944.44;;;21.93;61.47
79465;BME280;68932;47.410;8.232;2023-09-19T11:42:47;96946.08;;;22.10;60.19
79465;BME280;68932;47.410;8.232;2023-09-19T11:48:20;96939.61;;;22.29;60.11
79465;BME280;68932;47.410;8.232;2023-09-19T11:50:49;96937.19;;;22.41;59.90
79465;BME280;68932;47.410;8.232;2023-09-19T11:53:18;96939.98;;;22.48;58.36
79465;BME280;68932;47.410;8.232;2023-09-19T11:55:47;96937.09;;;22.54;58.70
79465;BME280;68932;47.410;8.232;2023-09-19T11:58:17;96932.95;;;22.64;58.82
79465;BME280;68932;47.410;8.232;2023-09-19T12:00:46;96934.11;;;22.74;58.14
79465;BME280;68932;47.410;8.232;2023-09-19T12:03:22;96929.98;;;22.81;56.92
79465;BME280;68932;47.410;8.232;2023-09-19T12:05:52;96930.91;;;22.86;56.48
79465;BME280;68932;47.410;8.232;2023-09-19T12:08:20;96925.04;;;22.92;56.87
79465;BME280;68932;47.410;8.232;2023-09-19T12:10:50;96924.36;;;23.02;57.84
79465;BME280;68932;47.410;8.232;2023-09-19T12:13:19;96917.15;;;23.15;58.03
79465;BME280;68932;47.410;8.232;2023-09-19T12:15:48;96916.02;;;23.22;55.89
79465;BME280;68932;47.410;8.232;2023-09-19T12:18:29;96909.35;;;23.21;55.00
79465;BME280;68932;47.410;8.232;2023-09-19T12:20:57;96913.74;;;23.19;55.46
79465;BME280;68932;47.410;8.232;2023-09-19T12:23:26;96904.80;;;23.17;54.69
79465;BME280;68932;47.410;8.232;2023-09-19T12:25:55;96907.63;;;23.16;55.61
79465;BME280;68932;47.410;8.232;2023-09-19T12:28:26;96903.73;;;23.17;55.59
79465;BME280;68932;47.410;8.232;2023-09-19T12:30:55;96901.14;;;23.18;55.38
79465;BME280;68932;47.410;8.232;2023-09-19T12:33:24;96892.02;;;23.18;55.09
79465;BME280;68932;47.410;8.232;2023-09-19T12:35:54;96893.15;;;23.16;54.25
79465;BME280;68932;47.410;8.232;2023-09-19T12:38:29;96885.65;;;23.09;54.43
79465;BME280;68932;47.410;8.232;2023-09-19T12:40:58;96880.69;;;23.10;55.41
79465;BME280;68932;47.410;8.232;2023-09-19T12:43:27;96882.80;;;23.14;54.47
79465;BME280;68932;47.410;8.232;2023-09-19T12:45:56;96881.23;;;23.13;53.47
79465;BME280;68932;47.410;8.232;2023-09-19T12:48:25;96879.13;;;23.13;53.85
79465;BME280;68932;47.410;8.232;2023-09-19T12:51:04;96880.52;;;23.16;54.08
79465;BME280;68932;47.410;8.232;2023-09-19T12:53:33;96875.63;;;23.14;53.27
79465;BME280;68932;47.410;8.232;2023-09-19T12:56:01;96868.73;;;23.10;53.89
79465;BME280;68932;47.410;8.232;2023-09-19T12:58:30;96868.80;;;23.13;54.06
79465;BME280;68932;47.410;8.232;2023-09-19T13:00:59;96869.00;;;23.19;54.40
79465;BME280;68932;47.410;8.232;2023-09-19T13:03:29;96867.39;;;23.26;54.04
79465;BME280;68932;47.410;8.232;2023-09-19T13:05:58;96866.73;;;23.33;53.68
79465;BME280;68932;47.410;8.232;2023-09-19T13:08:29;96862.55;;;23.31;52.53
79465;BME280;68932;47.410;8.232;2023-09-19T13:11:14;96860.42;;;23.25;53.47
79465;BME280;68932;47.410;8.232;2023-09-19T13:13:44;96854.77;;;23.27;53.55
79465;BME280;68932;47.410;8.232;2023-09-19T13:16:13;96849.25;;;23.30;52.76
79465;BME280;68932;47.410;8.232;2023-09-19T13:18:46;96849.00;;;23.33;53.01
79465;BME280;68932;47.410;8.232;2023-09-19T13:21:15;96848.13;;;23.41;52.49
79465;BME280;68932;47.410;8.232;2023-09-19T13:23:44;96847.83;;;23.37;52.09
79465;BME280;68932;47.410;8.232;2023-09-19T13:26:13;96851.69;;;23.39;52.50
79465;BME280;68932;47.410;8.232;2023-09-19T13:28:41;96853.05;;;23.49;51.91
79465;BME280;68932;47.410;8.232;2023-09-19T13:31:10;96849.41;;;23.50;52.15